ワシントン・ダレス国際空港の過去48時間の天気

ワシントン・ダレス国際空港 (Washington DC, Washington-Dulles International Airport)

現在時刻: 9/22 12:31 EDT (9/22 16:31 UTC) 以下の時間は現地時間です。

過去48時間のMETAR気象情報
時間 風向 風速(m/s) 視程 気温(℃) 湿度(%) 気圧(hPa) 天気現象
22 11:52 北西 3 10km以上 18.9 42 1023.9
22 10:52 北北西 3 10km以上 16.7 52 1024.6
22 09:52 北西 3 10km以上 12.8 66 1024.9
22 08:52 北西 2 10km以上 9.4 80 1025.3
22 07:52 静穏 0 10km以上 6.7 89 1025.5
22 06:52 静穏 0 10km以上 3.9 93 1025.7
22 05:52 北西 2 10km以上 6.1 86 1026.1
22 04:52 北北西 3 10km以上 5 89 1026.4
22 03:52 静穏 0 10km以上 5 93 1026.7
22 02:52 静穏 0 10km以上 5.6 89 1027.2
22 01:52 静穏 0 10km以上 7.2 86 1027.5
22 00:52 西北西 2 10km以上 6.1 86 1028.3
21 23:52 静穏 0 10km以上 5.6 92 1028.8
21 22:52 西北西 2 10km以上 7.2 82 1029.3
21 21:52 静穏 0 10km以上 8.3 80 1029.5
21 20:52 南東 2 10km以上 9.4 74 1030.1
21 19:52 南東 2 10km以上 10.6 68 1030
21 18:52 南東 2 10km以上 15 45 1030.3
21 17:52 東南東 3 10km以上 17.8 35 1030.6
21 16:52 3 10km以上 18.9 33 1030.9
21 15:52 3 10km以上 19.4 36 1031.6
21 14:52 3 10km以上 18.9 37 1032.5
21 13:52 3 10km以上 18.9 37 1033.3
21 12:52 3 10km以上 18.3 40 1034.1
21 11:52 北北東 5 10km以上 17.2 41 1035
21 10:52 北東 3 10km以上 16.7 44 1035.2
21 09:52 北東 3 10km以上 13.9 53 1035.2
21 08:52 北北東 3 10km以上 11.1 61 1034.9
21 07:52 3 10km以上 8.3 74 1034.7
21 06:52 2 10km以上 7.2 80 1034.1
21 05:52 北西 2 10km以上 6.7 82 1033.8
21 04:52 北北西 2 10km以上 6.7 82 1033.7
21 03:52 北北西 2 10km以上 6.1 86 1033.5
21 02:52 北北西 2 10km以上 7.8 82 1033.8
21 01:52 静穏 0 10km以上 6.7 82 1033.8
21 00:52 東北東 3 10km以上 10 71 1033.6
20 23:52 3 10km以上 10.6 65 1033.4
20 22:52 東北東 2 10km以上 11.1 63 1033.1
20 21:52 3 10km以上 12.2 59 1033.1
20 20:52 4 10km以上 13.3 57 1032.8
20 19:52 4 10km以上 15 47 1032.2
20 18:52 東北東 4 10km以上 16.1 44 1031.7
20 17:52 北東 4 10km以上 18.9 35 1031.4
20 16:52 3 10km以上 19.4 34 1031.2
20 15:52 北東 4 10km以上 19.4 34 1031.3
KIAD 221552Z 32005KT 10SM CLR 19/06 A3024 RMK AO2 SLP239 T01890056
KIAD 221452Z 34006KT 10SM CLR 17/07 A3026 RMK AO2 SLP246 T01670067 58009
KIAD 221352Z 32006KT 10SM CLR 13/07 A3027 RMK AO2 SLP249 T01280067
KIAD 221252Z 31003KT 10SM CLR 09/06 A3028 RMK AO2 SLP253 T00940061
KIAD 221152Z 00000KT 10SM CLR 07/05 A3028 RMK AO2 SLP255 T00670050 10072 20033 56008
KIAD 221052Z 00000KT 10SM CLR 04/03 A3029 RMK AO2 SLP257 T00390028
KIAD 220952Z 32004KT 10SM CLR 06/04 A3030 RMK AO2 SLP261 T00610039
KIAD 220852Z 33005KT 10SM CLR 05/03 A3031 RMK AO2 SLP264 T00500033 56012
KIAD 220752Z 00000KT 10SM CLR 05/04 A3032 RMK AO2 SLP267 T00500039
KIAD 220652Z 00000KT 10SM CLR 06/04 A3033 RMK AO2 SLP272 T00560039
KIAD 220552Z 00000KT 10SM CLR 07/05 A3035 RMK AO2 SLP275 T00720050 10122 20056 58016
KIAD 220452Z 30004KT 10SM CLR 06/04 A3037 RMK AO2 SLP283 T00610039 402000050
KIAD 220352Z 00000KT 10SM CLR 06/04 A3038 RMK AO2 SLP288 T00560044
KIAD 220252Z 30003KT 10SM CLR 07/04 A3039 RMK AO2 SLP293 T00720044 58007
KIAD 220152Z 00000KT 10SM CLR 08/05 A3040 RMK AO2 SLP295 T00830050
KIAD 220052Z 14003KT 10SM CLR 09/05 A3042 RMK AO2 SLP301 T00940050
KIAD 212352Z 13004KT 10SM CLR 11/05 A3042 RMK AO2 SLP300 T01060050 10200 20106 56010
KIAD 212252Z 14004KT 10SM FEW250 15/03 A3043 RMK AO2 SLP303 T01500033
KIAD 212152Z 11006KT 10SM FEW045 FEW250 18/02 A3043 RMK AO2 SLP306 T01780022
KIAD 212052Z VRB05KT 10SM FEW050 FEW250 19/02 A3045 RMK AO2 SLP309 T01890022 56023
KIAD 211952Z VRB05KT 10SM FEW250 19/04 A3047 RMK AO2 SLP316 T01940039
KIAD 211852Z VRB06KT 10SM CLR 19/04 A3049 RMK AO2 SLP325 T01890039
KIAD 211752Z VRB06KT 10SM CLR 19/04 A3051 RMK AO2 SLP333 T01890039 10189 20083 58019
KIAD 211652Z VRB06KT 10SM CLR 18/04 A3054 RMK AO2 SLP341 T01830044
KIAD 211552Z 03010G15KT 10SM CLR 17/04 A3057 RMK AO2 SLP350 T01720039
KIAD 211452Z 05006G16KT 10SM CLR 17/04 A3057 RMK AO2 SLP352 T01670044 51006
KIAD 211352Z 05005KT 10SM FEW250 14/04 A3057 RMK AO2 SLP352 T01390044
KIAD 211252Z 02005KT 10SM FEW250 11/04 A3056 RMK AO2 SLP349 T01110039
KIAD 211152Z 35005KT 10SM FEW250 08/04 A3056 RMK AO2 SLP347 T00830039 10083 20050 53009
KIAD 211052Z 01004KT 10SM FEW250 07/04 A3054 RMK AO2 SLP341 T00720039
KIAD 210952Z 31004KT 10SM CLR 07/04 A3053 RMK AO2 SLP338 T00670039 $
KIAD 210852Z 33004KT 10SM CLR 07/04 A3053 RMK AO2 SLP337 T00670039 55001 $
KIAD 210752Z 33003KT 10SM CLR 06/04 A3052 RMK AO2 SLP335 T00610039 $
KIAD 210652Z 34004KT 10SM CLR 08/05 A3053 RMK AO2 SLP338 T00780050 $
KIAD 210552Z 00000KT 10SM CLR 07/04 A3053 RMK AO2 SLP338 T00670039 10144 20067 51007 $
KIAD 210452Z 07005KT 10SM CLR 10/05 A3053 RMK AO2 SLP336 T01000050 402000050 $
KIAD 210352Z 08006KT 10SM CLR 11/04 A3052 RMK AO2 SLP334 T01060044 $
KIAD 210252Z 07003KT 10SM CLR 11/04 A3051 RMK AO2 SLP331 T01110044 51010 $
KIAD 210152Z 08005KT 10SM CLR 12/04 A3051 RMK AO2 SLP331 T01220044 $
KIAD 210052Z 09008KT 10SM CLR 13/05 A3050 RMK AO2 SLP328 T01330050 $
KIAD 202352Z 09007KT 10SM CLR 15/04 A3048 RMK AO2 SLP322 T01500039 10200 20144 53009 $
KIAD 202252Z 06007KT 10SM FEW050 16/04 A3047 RMK AO2 SLP317 T01610039 $
KIAD 202152Z 04008KT 10SM FEW040 19/03 A3046 RMK AO2 SLP314 T01890033
KIAD 202052Z VRB05KT 10SM FEW040 19/03 A3045 RMK AO2 SLP312 T01940033 56010
KIAD 201952Z 05007KT 10SM FEW040 19/03 A3046 RMK AO2 SLP313 T01940033